sensor_id;sensor_type;location;lat;lon;timestamp;temperature;humidity
52024;DHT22;38038;45.922;13.604;2023-02-12T00:01:19;0.70;99.90
52024;DHT22;38038;45.922;13.604;2023-02-12T00:03:45;0.70;99.90
52024;DHT22;38038;45.922;13.604;2023-02-12T00:06:11;0.80;99.90
52024;DHT22;38038;45.922;13.604;2023-02-12T00:08:37;1.00;99.90
52024;DHT22;38038;45.922;13.604;2023-02-12T00:11:25;0.80;99.90
52024;DHT22;38038;45.922;13.604;2023-02-12T00:13:51;0.60;99.90
52024;DHT22;38038;45.922;13.604;2023-02-12T00:16:19;0.50;99.90
52024;DHT22;38038;45.922;13.604;2023-02-12T00:18:45;0.40;99.90
52024;DHT22;38038;45.922;13.604;2023-02-12T00:21:12;0.40;99.90
52024;DHT22;38038;45.922;13.604;2023-02-12T00:23:38;0.40;99.90
52024;DHT22;38038;45.922;13.604;2023-02-12T00:26:14;0.30;99.90
52024;DHT22;38038;45.922;13.604;2023-02-12T00:28:40;0.30;99.90
52024;DHT22;38038;45.922;13.604;2023-02-12T00:31:08;0.40;99.90
52024;DHT22;38038;45.922;13.604;2023-02-12T00:33:34;0.40;99.90
52024;DHT22;38038;45.922;13.604;2023-02-12T00:36:00;0.30;99.90
52024;DHT22;38038;45.922;13.604;2023-02-12T00:38:25;0.10;99.90
52024;DHT22;38038;45.922;13.604;2023-02-12T00:40:51;0.10;99.90
52024;DHT22;38038;45.922;13.604;2023-02-12T00:43:17;0.00;99.90
52024;DHT22;38038;45.922;13.604;2023-02-12T00:45:46;0.00;99.90
52024;DHT22;38038;45.922;13.604;2023-02-12T00:48:13;-0.20;99.90
52024;DHT22;38038;45.922;13.604;2023-02-12T00:50:39;-0.20;99.90
52024;DHT22;38038;45.922;13.604;2023-02-12T00:53:08;-0.20;99.90
52024;DHT22;38038;45.922;13.604;2023-02-12T00:55:34;-0.20;99.90
52024;DHT22;38038;45.922;13.604;2023-02-12T00:58:00;-0.20;99.90
52024;DHT22;38038;45.922;13.604;2023-02-12T01:00:25;-0.10;99.90
52024;DHT22;38038;45.922;13.604;2023-02-12T01:02:51;0.00;99.90
52024;DHT22;38038;45.922;13.604;2023-02-12T01:05:17;0.10;99.90
52024;DHT22;38038;45.922;13.604;2023-02-12T01:07:48;0.20;99.90
52024;DHT22;38038;45.922;13.604;2023-02-12T01:10:13;0.10;99.90
52024;DHT22;38038;45.922;13.604;2023-02-12T01:12:47;0.10;99.90
52024;DHT22;38038;45.922;13.604;2023-02-12T01:15:16;0.00;99.90
52024;DHT22;38038;45.922;13.604;2023-02-12T01:17:42;0.00;99.90
52024;DHT22;38038;45.922;13.604;2023-02-12T01:20:10;0.00;99.90
52024;DHT22;38038;45.922;13.604;2023-02-12T01:22:37;0.00;99.90
52024;DHT22;38038;45.922;13.604;2023-02-12T01:25:04;0.00;99.90
52024;DHT22;38038;45.922;13.604;2023-02-12T01:27:30;0.00;99.90
52024;DHT22;38038;45.922;13.604;2023-02-12T01:29:56;0.10;99.90
52024;DHT22;38038;45.922;13.604;2023-02-12T01:32:22;0.10;99.90
52024;DHT22;38038;45.922;13.604;2023-02-12T01:34:48;0.10;99.90
52024;DHT22;38038;45.922;13.604;2023-02-12T01:37:14;0.30;99.90
52024;DHT22;38038;45.922;13.604;2023-02-12T01:39:40;0.30;99.90
52024;DHT22;38038;45.922;13.604;2023-02-12T01:42:06;0.40;99.90
52024;DHT22;38038;45.922;13.604;2023-02-12T01:44:33;0.40;99.90
52024;DHT22;38038;45.922;13.604;2023-02-12T01:47:03;0.40;99.90
52024;DHT22;38038;45.922;13.604;2023-02-12T01:49:34;0.30;99.90
52024;DHT22;38038;45.922;13.604;2023-02-12T01:52:07;0.30;99.90
52024;DHT22;38038;45.922;13.604;2023-02-12T01:54:35;0.20;99.90
52024;DHT22;38038;45.922;13.604;2023-02-12T01:57:04;-0.10;99.90
52024;DHT22;38038;45.922;13.604;2023-02-12T01:59:31;-0.30;99.90
52024;DHT22;38038;45.922;13.604;2023-02-12T02:01:57;-0.30;99.90
52024;DHT22;38038;45.922;13.604;2023-02-12T02:04:26;-0.10;99.90
52024;DHT22;38038;45.922;13.604;2023-02-12T02:06:57;-0.10;99.90
52024;DHT22;38038;45.922;13.604;2023-02-12T02:09:23;0.00;99.90
52024;DHT22;38038;45.922;13.604;2023-02-12T02:11:49;0.10;99.90
52024;DHT22;38038;45.922;13.604;2023-02-12T02:14:34;0.10;99.90
52024;DHT22;38038;45.922;13.604;2023-02-12T02:17:23;0.10;99.90
52024;DHT22;38038;45.922;13.604;2023-02-12T02:20:15;0.10;99.90
52024;DHT22;38038;45.922;13.604;2023-02-12T02:31:02;-0.40;99.90
52024;DHT22;38038;45.922;13.604;2023-02-12T02:36:34;-0.40;99.90
52024;DHT22;38038;45.922;13.604;2023-02-12T02:39:00;-0.50;99.90
52024;DHT22;38038;45.922;13.604;2023-02-12T02:44:12;-0.40;99.90
52024;DHT22;38038;45.922;13.604;2023-02-12T02:46:45;-0.40;99.90
52024;DHT22;38038;45.922;13.604;2023-02-12T02:49:26;-0.40;99.90
52024;DHT22;38038;45.922;13.604;2023-02-12T02:51:58;-0.30;99.90
52024;DHT22;38038;45.922;13.604;2023-02-12T02:54:31;-0.20;99.90
52024;DHT22;38038;45.922;13.604;2023-02-12T02:57:27;-0.20;99.90
52024;DHT22;38038;45.922;13.604;2023-02-12T02:59:59;-0.50;99.90
52024;DHT22;38038;45.922;13.604;2023-02-12T03:02:31;-0.50;99.90
52024;DHT22;38038;45.922;13.604;2023-02-12T03:05:02;-0.40;99.90
52024;DHT22;38038;45.922;13.604;2023-02-12T03:07:33;-0.40;99.90
52024;DHT22;38038;45.922;13.604;2023-02-12T03:10:09;-0.40;99.90
52024;DHT22;38038;45.922;13.604;2023-02-12T03:12:45;-0.50;99.90
52024;DHT22;38038;45.922;13.604;2023-02-12T03:17:51;-0.30;99.90
52024;DHT22;38038;45.922;13.604;2023-02-12T03:20:23;-0.30;99.90
52024;DHT22;38038;45.922;13.604;2023-02-12T03:23:27;-0.40;99.90
52024;DHT22;38038;45.922;13.604;2023-02-12T03:26:08;-0.50;99.90
52024;DHT22;38038;45.922;13.604;2023-02-12T03:28:36;-0.60;99.90
52024;DHT22;38038;45.922;13.604;2023-02-12T03:34:03;-0.80;99.90
52024;DHT22;38038;45.922;13.604;2023-02-12T03:42:08;-0.90;99.90
52024;DHT22;38038;45.922;13.604;2023-02-12T03:44:42;-0.80;99.90
52024;DHT22;38038;45.922;13.604;2023-02-12T03:47:21;-0.90;99.90
52024;DHT22;38038;45.922;13.604;2023-02-12T03:50:02;-0.90;99.90
52024;DHT22;38038;45.922;13.604;2023-02-12T03:52:31;-0.90;99.90
52024;DHT22;38038;45.922;13.604;2023-02-12T03:54:58;-0.90;99.90
52024;DHT22;38038;45.922;13.604;2023-02-12T03:57:27;-0.70;99.90
52024;DHT22;38038;45.922;13.604;2023-02-12T03:59:57;-0.70;99.90
52024;DHT22;38038;45.922;13.604;2023-02-12T04:02:24;-0.70;99.90
52024;DHT22;38038;45.922;13.604;2023-02-12T04:04:51;-0.70;99.90
52024;DHT22;38038;45.922;13.604;2023-02-12T04:07:16;-0.80;99.90
52024;DHT22;38038;45.922;13.604;2023-02-12T04:09:43;-0.70;99.90
52024;DHT22;38038;45.922;13.604;2023-02-12T04:22:42;-0.90;99.90
52024;DHT22;38038;45.922;13.604;2023-02-12T04:25:24;-1.00;99.90
52024;DHT22;38038;45.922;13.604;2023-02-12T04:28:05;-1.00;99.90
52024;DHT22;38038;45.922;13.604;2023-02-12T04:30:41;-1.00;99.90
52024;DHT22;38038;45.922;13.604;2023-02-12T04:33:10;-1.00;99.90
52024;DHT22;38038;45.922;13.604;2023-02-12T04:36:05;-0.90;99.90
52024;DHT22;38038;45.922;13.604;2023-02-12T04:38:40;-1.10;99.90
52024;DHT22;38038;45.922;13.604;2023-02-12T04:41:08;-1.20;99.90
52024;DHT22;38038;45.922;13.604;2023-02-12T04:43:35;-1.30;99.90
52024;DHT22;38038;45.922;13.604;2023-02-12T04:46:06;-1.30;99.90
52024;DHT22;38038;45.922;13.604;2023-02-12T04:48:32;-1.10;99.90
52024;DHT22;38038;45.922;13.604;2023-02-12T04:51:01;-1.00;99.90
52024;DHT22;38038;45.922;13.604;2023-02-12T04:53:27;-0.80;99.90
52024;DHT22;38038;45.922;13.604;2023-02-12T04:55:53;-0.90;99.90
52024;DHT22;38038;45.922;13.604;2023-02-12T04:58:19;-0.90;99.90
52024;DHT22;38038;45.922;13.604;2023-02-12T05:00:45;-0.90;99.90
52024;DHT22;38038;45.922;13.604;2023-02-12T05:03:11;-1.00;99.90
52024;DHT22;38038;45.922;13.604;2023-02-12T05:05:37;-1.10;99.90
52024;DHT22;38038;45.922;13.604;2023-02-12T05:08:02;-1.20;99.90
52024;DHT22;38038;45.922;13.604;2023-02-12T05:10:28;-1.20;99.90
52024;DHT22;38038;45.922;13.604;2023-02-12T05:12:54;-1.40;99.90
52024;DHT22;38038;45.922;13.604;2023-02-12T05:15:21;-1.30;99.90
52024;DHT22;38038;45.922;13.604;2023-02-12T05:17:47;-1.50;99.90
52024;DHT22;38038;45.922;13.604;2023-02-12T05:20:13;-1.60;99.90
52024;DHT22;38038;45.922;13.604;2023-02-12T05:22:39;-1.50;99.90
52024;DHT22;38038;45.922;13.604;2023-02-12T05:25:06;-1.50;99.90
52024;DHT22;38038;45.922;13.604;2023-02-12T05:27:31;-1.50;99.90
52024;DHT22;38038;45.922;13.604;2023-02-12T05:29:57;-1.30;99.90
52024;DHT22;38038;45.922;13.604;2023-02-12T05:32:23;-1.20;99.90
52024;DHT22;38038;45.922;13.604;2023-02-12T05:34:49;-1.10;99.90
52024;DHT22;38038;45.922;13.604;2023-02-12T05:37:15;-1.10;99.90
52024;DHT22;38038;45.922;13.604;2023-02-12T05:39:40;-1.00;99.90
52024;DHT22;38038;45.922;13.604;2023-02-12T05:42:06;-1.10;99.90
52024;DHT22;38038;45.922;13.604;2023-02-12T05:44:32;-1.10;99.90
52024;DHT22;38038;45.922;13.604;2023-02-12T05:46:57;-1.10;99.90
52024;DHT22;38038;45.922;13.604;2023-02-12T05:49:23;-1.10;99.90
52024;DHT22;38038;45.922;13.604;2023-02-12T05:51:49;-1.20;99.90
52024;DHT22;38038;45.922;13.604;2023-02-12T05:54:14;-1.20;99.90
52024;DHT22;38038;45.922;13.604;2023-02-12T05:56:45;-1.40;99.90
52024;DHT22;38038;45.922;13.604;2023-02-12T05:59:14;-1.50;99.90
52024;DHT22;38038;45.922;13.604;2023-02-12T06:01:42;-1.60;99.90
52024;DHT22;38038;45.922;13.604;2023-02-12T06:04:16;-1.60;99.90
52024;DHT22;38038;45.922;13.604;2023-02-12T06:06:42;-1.60;99.90
52024;DHT22;38038;45.922;13.604;2023-02-12T06:09:09;-1.50;99.90
52024;DHT22;38038;45.922;13.604;2023-02-12T06:11:35;-1.50;99.90
52024;DHT22;38038;45.922;13.604;2023-02-12T06:14:02;-1.50;99.90
52024;DHT22;38038;45.922;13.604;2023-02-12T06:16:28;-1.50;99.90
52024;DHT22;38038;45.922;13.604;2023-02-12T06:18:55;-1.30;99.90
52024;DHT22;38038;45.922;13.604;2023-02-12T06:21:22;-1.10;99.90
52024;DHT22;38038;45.922;13.604;2023-02-12T06:23:48;-1.30;99.90
52024;DHT22;38038;45.922;13.604;2023-02-12T06:26:15;-1.20;99.90
52024;DHT22;38038;45.922;13.604;2023-02-12T06:28:41;-1.30;99.90
52024;DHT22;38038;45.922;13.604;2023-02-12T06:31:17;-1.20;99.90
52024;DHT22;38038;45.922;13.604;2023-02-12T06:33:43;-1.20;99.90
52024;DHT22;38038;45.922;13.604;2023-02-12T06:36:09;-1.30;99.90
52024;DHT22;38038;45.922;13.604;2023-02-12T06:38:34;-1.40;99.90
52024;DHT22;38038;45.922;13.604;2023-02-12T06:41:01;-1.30;99.90
52024;DHT22;38038;45.922;13.604;2023-02-12T06:43:27;-1.30;99.90
52024;DHT22;38038;45.922;13.604;2023-02-12T06:45:53;-1.10;99.90
52024;DHT22;38038;45.922;13.604;2023-02-12T06:48:18;-1.00;99.90
52024;DHT22;38038;45.922;13.604;2023-02-12T06:50:44;-1.10;99.90
52024;DHT22;38038;45.922;13.604;2023-02-12T06:53:10;-1.00;99.90
52024;DHT22;38038;45.922;13.604;2023-02-12T06:55:35;-1.10;99.90
52024;DHT22;38038;45.922;13.604;2023-02-12T06:58:01;-1.10;99.90
52024;DHT22;38038;45.922;13.604;2023-02-12T07:00:27;-1.10;99.90
52024;DHT22;38038;45.922;13.604;2023-02-12T07:02:54;-1.00;99.90
52024;DHT22;38038;45.922;13.604;2023-02-12T07:05:20;-0.90;99.90
52024;DHT22;38038;45.922;13.604;2023-02-12T07:07:46;-0.90;99.90
52024;DHT22;38038;45.922;13.604;2023-02-12T07:10:12;-0.60;99.90
52024;DHT22;38038;45.922;13.604;2023-02-12T07:12:38;-0.70;99.90
52024;DHT22;38038;45.922;13.604;2023-02-12T07:15:04;-0.50;99.90
52024;DHT22;38038;45.922;13.604;2023-02-12T07:17:30;-0.50;99.90
52024;DHT22;38038;45.922;13.604;2023-02-12T07:19:56;-0.40;99.90
52024;DHT22;38038;45.922;13.604;2023-02-12T07:22:21;-0.10;99.90
52024;DHT22;38038;45.922;13.604;2023-02-12T07:24:47;-0.20;99.90
52024;DHT22;38038;45.922;13.604;2023-02-12T07:27:13;0.10;99.90
52024;DHT22;38038;45.922;13.604;2023-02-12T07:29:39;0.10;99.90
52024;DHT22;38038;45.922;13.604;2023-02-12T07:32:05;-0.10;99.90
52024;DHT22;38038;45.922;13.604;2023-02-12T07:34:31;0.00;99.90
52024;DHT22;38038;45.922;13.604;2023-02-12T07:36:57;0.00;99.90
52024;DHT22;38038;45.922;13.604;2023-02-12T07:39:23;0.10;99.90
52024;DHT22;38038;45.922;13.604;2023-02-12T07:41:48;0.30;99.90
52024;DHT22;38038;45.922;13.604;2023-02-12T07:44:14;0.30;99.90
52024;DHT22;38038;45.922;13.604;2023-02-12T07:46:45;0.40;99.90
52024;DHT22;38038;45.922;13.604;2023-02-12T07:49:13;0.40;99.90
52024;DHT22;38038;45.922;13.604;2023-02-12T07:51:39;0.60;99.90
52024;DHT22;38038;45.922;13.604;2023-02-12T07:54:05;0.70;99.90
52024;DHT22;38038;45.922;13.604;2023-02-12T07:56:34;0.90;99.90
52024;DHT22;38038;45.922;13.604;2023-02-12T07:59:02;0.90;99.90
52024;DHT22;38038;45.922;13.604;2023-02-12T08:01:37;1.20;99.90
52024;DHT22;38038;45.922;13.604;2023-02-12T08:04:09;1.40;99.90
52024;DHT22;38038;45.922;13.604;2023-02-12T08:06:38;1.60;99.90
52024;DHT22;38038;45.922;13.604;2023-02-12T08:09:07;1.80;99.90
52024;DHT22;38038;45.922;13.604;2023-02-12T08:11:35;2.00;99.90
52024;DHT22;38038;45.922;13.604;2023-02-12T08:14:02;2.10;99.90
52024;DHT22;38038;45.922;13.604;2023-02-12T08:16:29;2.20;99.90
52024;DHT22;38038;45.922;13.604;2023-02-12T08:18:56;2.30;99.90
52024;DHT22;38038;45.922;13.604;2023-02-12T08:21:24;2.50;99.90
52024;DHT22;38038;45.922;13.604;2023-02-12T08:23:52;2.60;99.90
52024;DHT22;38038;45.922;13.604;2023-02-12T08:26:22;2.60;99.90
52024;DHT22;38038;45.922;13.604;2023-02-12T08:28:50;2.60;99.90
52024;DHT22;38038;45.922;13.604;2023-02-12T08:31:21;2.60;99.90
52024;DHT22;38038;45.922;13.604;2023-02-12T08:33:48;2.50;99.90
52024;DHT22;38038;45.922;13.604;2023-02-12T08:36:17;2.50;99.90
52024;DHT22;38038;45.922;13.604;2023-02-12T08:38:44;2.60;99.90
52024;DHT22;38038;45.922;13.604;2023-02-12T08:41:15;2.70;99.90
52024;DHT22;38038;45.922;13.604;2023-02-12T08:43:41;2.90;99.90
52024;DHT22;38038;45.922;13.604;2023-02-12T08:46:13;3.00;99.90
52024;DHT22;38038;45.922;13.604;2023-02-12T08:48:41;3.10;99.90
52024;DHT22;38038;45.922;13.604;2023-02-12T08:53:38;3.20;99.90
52024;DHT22;38038;45.922;13.604;2023-02-12T08:56:04;3.40;99.90
52024;DHT22;38038;45.922;13.604;2023-02-12T08:58:30;3.50;99.90
52024;DHT22;38038;45.922;13.604;2023-02-12T09:00:56;3.60;99.90
52024;DHT22;38038;45.922;13.604;2023-02-12T09:03:22;3.80;99.90
52024;DHT22;38038;45.922;13.604;2023-02-12T09:05:48;4.00;99.90
52024;DHT22;38038;45.922;13.604;2023-02-12T09:08:14;4.00;99.90
52024;DHT22;38038;45.922;13.604;2023-02-12T09:10:41;4.10;99.90
52024;DHT22;38038;45.922;13.604;2023-02-12T09:13:07;4.30;99.90
52024;DHT22;38038;45.922;13.604;2023-02-12T09:15:41;4.50;99.90
52024;DHT22;38038;45.922;13.604;2023-02-12T09:18:07;4.40;99.90
52024;DHT22;38038;45.922;13.604;2023-02-12T09:20:36;4.40;99.90
52024;DHT22;38038;45.922;13.604;2023-02-12T09:23:04;4.60;99.90
52024;DHT22;38038;45.922;13.604;2023-02-12T09:25:30;4.80;99.90
52024;DHT22;38038;45.922;13.604;2023-02-12T09:28:01;4.90;99.90
52024;DHT22;38038;45.922;13.604;2023-02-12T09:30:27;5.10;99.90
52024;DHT22;38038;45.922;13.604;2023-02-12T09:32:54;5.30;99.90
52024;DHT22;38038;45.922;13.604;2023-02-12T09:35:20;5.20;99.60
52024;DHT22;38038;45.922;13.604;2023-02-12T09:37:46;5.40;99.90
52024;DHT22;38038;45.922;13.604;2023-02-12T09:40:25;5.60;99.90
52024;DHT22;38038;45.922;13.604;2023-02-12T09:43:02;5.60;98.90
52024;DHT22;38038;45.922;13.604;2023-02-12T09:45:36;5.80;99.20
52024;DHT22;38038;45.922;13.604;2023-02-12T09:49:08;6.00;98.50
52024;DHT22;38038;45.922;13.604;2023-02-12T09:51:04;6.20;97.30
52024;DHT22;38038;45.922;13.604;2023-02-12T09:53:36;6.40;97.00
52024;DHT22;38038;45.922;13.604;2023-02-12T09:56:05;6.60;96.90
52024;DHT22;38038;45.922;13.604;2023-02-12T09:58:40;6.70;96.30
52024;DHT22;38038;45.922;13.604;2023-02-12T10:01:15;6.90;96.60
52024;DHT22;38038;45.922;13.604;2023-02-12T10:03:41;7.10;96.10
52024;DHT22;38038;45.922;13.604;2023-02-12T10:06:13;7.40;95.80
52024;DHT22;38038;45.922;13.604;2023-02-12T10:08:49;7.50;95.50
52024;DHT22;38038;45.922;13.604;2023-02-12T10:11:24;7.60;95.10
52024;DHT22;38038;45.922;13.604;2023-02-12T10:16:42;8.10;92.70
52024;DHT22;38038;45.922;13.604;2023-02-12T10:20:01;8.20;92.60
52024;DHT22;38038;45.922;13.604;2023-02-12T10:27:46;8.50;92.80
52024;DHT22;38038;45.922;13.604;2023-02-12T10:30:23;8.70;92.40
52024;DHT22;38038;45.922;13.604;2023-02-12T10:32:55;8.80;92.50
52024;DHT22;38038;45.922;13.604;2023-02-12T10:35:24;8.90;92.40
52024;DHT22;38038;45.922;13.604;2023-02-12T10:37:59;9.00;91.90
52024;DHT22;38038;45.922;13.604;2023-02-12T10:40:34;9.00;91.20
52024;DHT22;38038;45.922;13.604;2023-02-12T10:43:02;9.20;89.80
52024;DHT22;38038;45.922;13.604;2023-02-12T10:45:37;9.30;89.80
52024;DHT22;38038;45.922;13.604;2023-02-12T10:48:13;9.30;90.10
52024;DHT22;38038;45.922;13.604;2023-02-12T10:53:33;9.40;90.70
52024;DHT22;38038;45.922;13.604;2023-02-12T10:58:59;9.50;90.70
52024;DHT22;38038;45.922;13.604;2023-02-12T11:01:29;9.60;90.10
52024;DHT22;38038;45.922;13.604;2023-02-12T11:03:57;9.60;90.10
52024;DHT22;38038;45.922;13.604;2023-02-12T11:06:26;9.60;89.00
52024;DHT22;38038;45.922;13.604;2023-02-12T11:08:52;9.60;88.40
52024;DHT22;38038;45.922;13.604;2023-02-12T11:11:25;9.60;86.90
52024;DHT22;38038;45.922;13.604;2023-02-12T11:14:06;9.70;86.30
52024;DHT22;38038;45.922;13.604;2023-02-12T11:16:36;9.70;84.80
52024;DHT22;38038;45.922;13.604;2023-02-12T11:19:06;9.80;85.00
52024;DHT22;38038;45.922;13.604;2023-02-12T11:21:34;9.70;84.40
52024;DHT22;38038;45.922;13.604;2023-02-12T11:24:27;9.70;84.80
52024;DHT22;38038;45.922;13.604;2023-02-12T11:27:24;9.70;84.80
52024;DHT22;38038;45.922;13.604;2023-02-12T11:32:38;9.60;83.10
52024;DHT22;38038;45.922;13.604;2023-02-12T11:35:12;9.60;82.00
52024;DHT22;38038;45.922;13.604;2023-02-12T11:37:42;9.70;80.30
52024;DHT22;38038;45.922;13.604;2023-02-12T11:42:59;9.70;80.50
52024;DHT22;38038;45.922;13.604;2023-02-12T11:45:31;9.80;80.30
52024;DHT22;38038;45.922;13.604;2023-02-12T11:47:58;10.00;80.30
52024;DHT22;38038;45.922;13.604;2023-02-12T11:50:29;10.20;79.80
52024;DHT22;38038;45.922;13.604;2023-02-12T11:52:59;10.30;80.00
52024;DHT22;38038;45.922;13.604;2023-02-12T11:55:31;10.40;79.90
52024;DHT22;38038;45.922;13.604;2023-02-12T11:58:14;10.50;79.90
52024;DHT22;38038;45.922;13.604;2023-02-12T12:08:54;10.50;80.40
52024;DHT22;38038;45.922;13.604;2023-02-12T12:11:28;10.60;81.00
52024;DHT22;38038;45.922;13.604;2023-02-12T12:16:50;10.80;80.30
52024;DHT22;38038;45.922;13.604;2023-02-12T12:23:10;10.90;80.90
52024;DHT22;38038;45.922;13.604;2023-02-12T12:28:25;11.00;80.20
52024;DHT22;38038;45.922;13.604;2023-02-12T12:31:03;11.00;79.80
52024;DHT22;38038;45.922;13.604;2023-02-12T12:38:45;11.10;80.50
52024;DHT22;38038;45.922;13.604;2023-02-12T12:43:57;11.30;79.80
52024;DHT22;38038;45.922;13.604;2023-02-12T12:46:42;11.30;79.20
52024;DHT22;38038;45.922;13.604;2023-02-12T12:49:35;11.30;79.80
52024;DHT22;38038;45.922;13.604;2023-02-12T12:57:41;11.40;79.40
52024;DHT22;38038;45.922;13.604;2023-02-12T13:03:44;11.50;80.50
52024;DHT22;38038;45.922;13.604;2023-02-12T13:05:55;11.60;80.20
52024;DHT22;38038;45.922;13.604;2023-02-12T13:08:46;11.50;80.30
52024;DHT22;38038;45.922;13.604;2023-02-12T13:17:16;11.70;80.00
52024;DHT22;38038;45.922;13.604;2023-02-12T13:22:18;11.80;80.70
52024;DHT22;38038;45.922;13.604;2023-02-12T13:24:56;11.60;80.60
52024;DHT22;38038;45.922;13.604;2023-02-12T13:27:31;11.60;79.90
52024;DHT22;38038;45.922;13.604;2023-02-12T13:32:41;11.50;79.90
52024;DHT22;38038;45.922;13.604;2023-02-12T13:35:17;11.60;80.60
52024;DHT22;38038;45.922;13.604;2023-02-12T13:37:53;11.60;80.00
52024;DHT22;38038;45.922;13.604;2023-02-12T13:40:24;11.60;79.60
52024;DHT22;38038;45.922;13.604;2023-02-12T13:45:57;11.60;79.90
52024;DHT22;38038;45.922;13.604;2023-02-12T13:48:40;11.60;80.50
52024;DHT22;38038;45.922;13.604;2023-02-12T13:51:17;11.50;81.50
52024;DHT22;38038;45.922;13.604;2023-02-12T13:56:42;11.50;82.40
52024;DHT22;38038;45.922;13.604;2023-02-12T14:05:14;11.50;80.40
52024;DHT22;38038;45.922;13.604;2023-02-12T14:07:44;11.50;79.90
52024;DHT22;38038;45.922;13.604;2023-02-12T14:10:35;11.50;78.80
52024;DHT22;38038;45.922;13.604;2023-02-12T14:13:20;11.60;78.30
52024;DHT22;38038;45.922;13.604;2023-02-12T14:15:50;11.60;78.20
52024;DHT22;38038;45.922;13.604;2023-02-12T14:23:46;11.50;79.60
52024;DHT22;38038;45.922;13.604;2023-02-12T14:26:20;11.40;79.80
52024;DHT22;38038;45.922;13.604;2023-02-12T14:28:51;11.40;80.00
52024;DHT22;38038;45.922;13.604;2023-02-12T14:33:52;11.30;79.80
52024;DHT22;38038;45.922;13.604;2023-02-12T14:36:42;11.30;79.80
52024;DHT22;38038;45.922;13.604;2023-02-12T14:41:53;11.20;79.50
52024;DHT22;38038;45.922;13.604;2023-02-12T14:49:31;11.10;78.50
52024;DHT22;38038;45.922;13.604;2023-02-12T14:52:02;11.10;78.50
52024;DHT22;38038;45.922;13.604;2023-02-12T14:57:17;11.00;78.50
52024;DHT22;38038;45.922;13.604;2023-02-12T14:59:46;11.00;78.90
52024;DHT22;38038;45.922;13.604;2023-02-12T15:02:31;11.00;78.50
52024;DHT22;38038;45.922;13.604;2023-02-12T15:05:12;10.90;78.80
52024;DHT22;38038;45.922;13.604;2023-02-12T15:07:51;10.90;78.20
52024;DHT22;38038;45.922;13.604;2023-02-12T15:10:51;10.90;78.10
52024;DHT22;38038;45.922;13.604;2023-02-12T15:24:03;11.00;77.00
52024;DHT22;38038;45.922;13.604;2023-02-12T15:26:32;11.00;77.10
52024;DHT22;38038;45.922;13.604;2023-02-12T15:28:59;10.90;77.50
52024;DHT22;38038;45.922;13.604;2023-02-12T15:31:27;10.90;77.40
52024;DHT22;38038;45.922;13.604;2023-02-12T15:33:56;10.80;77.10
52024;DHT22;38038;45.922;13.604;2023-02-12T15:36:24;10.80;77.50
52024;DHT22;38038;45.922;13.604;2023-02-12T15:38:54;10.80;78.10
52024;DHT22;38038;45.922;13.604;2023-02-12T15:41:27;10.80;77.50
52024;DHT22;38038;45.922;13.604;2023-02-12T15:43:54;10.70;77.60
52024;DHT22;38038;45.922;13.604;2023-02-12T15:46:20;10.70;78.80
52024;DHT22;38038;45.922;13.604;2023-02-12T15:48:46;10.70;77.80
52024;DHT22;38038;45.922;13.604;2023-02-12T15:51:33;10.70;78.40
52024;DHT22;38038;45.922;13.604;2023-02-12T15:54:02;10.60;78.10
52024;DHT22;38038;45.922;13.604;2023-02-12T15:56:29;10.50;78.90
52024;DHT22;38038;45.922;13.604;2023-02-12T15:58:59;10.40;78.70
52024;DHT22;38038;45.922;13.604;2023-02-12T16:01:30;10.40;79.60
52024;DHT22;38038;45.922;13.604;2023-02-12T16:04:02;10.40;79.60
52024;DHT22;38038;45.922;13.604;2023-02-12T16:06:31;10.40;80.90
52024;DHT22;38038;45.922;13.604;2023-02-12T16:09:05;10.30;80.00
52024;DHT22;38038;45.922;13.604;2023-02-12T16:11:33;10.30;79.80
52024;DHT22;38038;45.922;13.604;2023-02-12T16:14:03;10.20;80.80
52024;DHT22;38038;45.922;13.604;2023-02-12T16:16:45;10.20;80.70
52024;DHT22;38038;45.922;13.604;2023-02-12T16:19:28;10.10;81.40
52024;DHT22;38038;45.922;13.604;2023-02-12T16:22:05;10.00;82.60
52024;DHT22;38038;45.922;13.604;2023-02-12T16:24:37;9.90;81.80
52024;DHT22;38038;45.922;13.604;2023-02-12T16:27:20;9.80;81.30
52024;DHT22;38038;45.922;13.604;2023-02-12T16:30:03;9.70;81.50
52024;DHT22;38038;45.922;13.604;2023-02-12T16:32:41;9.60;83.40
52024;DHT22;38038;45.922;13.604;2023-02-12T16:43:23;9.10;84.80
52024;DHT22;38038;45.922;13.604;2023-02-12T16:47:51;9.00;84.60
52024;DHT22;38038;45.922;13.604;2023-02-12T16:50:18;8.90;84.50
52024;DHT22;38038;45.922;13.604;2023-02-12T16:52:44;8.80;86.10
52024;DHT22;38038;45.922;13.604;2023-02-12T16:55:13;8.70;85.90
52024;DHT22;38038;45.922;13.604;2023-02-12T16:57:39;8.70;86.70
52024;DHT22;38038;45.922;13.604;2023-02-12T17:00:07;8.40;87.50
52024;DHT22;38038;45.922;13.604;2023-02-12T17:02:33;8.20;88.00
52024;DHT22;38038;45.922;13.604;2023-02-12T17:05:01;8.10;88.40
52024;DHT22;38038;45.922;13.604;2023-02-12T17:07:30;8.00;88.70
52024;DHT22;38038;45.922;13.604;2023-02-12T17:09:56;7.80;88.90
52024;DHT22;38038;45.922;13.604;2023-02-12T17:12:22;7.70;89.10
52024;DHT22;38038;45.922;13.604;2023-02-12T17:14:48;7.80;89.40
52024;DHT22;38038;45.922;13.604;2023-02-12T17:17:14;7.80;89.60
52024;DHT22;38038;45.922;13.604;2023-02-12T17:19:40;7.80;89.20
52024;DHT22;38038;45.922;13.604;2023-02-12T17:22:07;7.60;90.00
52024;DHT22;38038;45.922;13.604;2023-02-12T17:24:39;7.50;90.20
52024;DHT22;38038;45.922;13.604;2023-02-12T17:27:05;7.30;90.30
52024;DHT22;38038;45.922;13.604;2023-02-12T17:29:32;7.40;90.10
52024;DHT22;38038;45.922;13.604;2023-02-12T17:31:58;7.30;90.10
52024;DHT22;38038;45.922;13.604;2023-02-12T17:34:24;7.20;90.30
52024;DHT22;38038;45.922;13.604;2023-02-12T17:36:51;7.20;90.50
52024;DHT22;38038;45.922;13.604;2023-02-12T17:39:17;7.20;90.70
52024;DHT22;38038;45.922;13.604;2023-02-12T17:41:43;7.30;90.60
52024;DHT22;38038;45.922;13.604;2023-02-12T17:44:09;7.40;90.70
52024;DHT22;38038;45.922;13.604;2023-02-12T17:46:37;7.40;90.60
52024;DHT22;38038;45.922;13.604;2023-02-12T17:49:03;7.40;90.70
52024;DHT22;38038;45.922;13.604;2023-02-12T17:51:30;7.30;91.00
52024;DHT22;38038;45.922;13.604;2023-02-12T17:53:55;7.10;91.10
52024;DHT22;38038;45.922;13.604;2023-02-12T17:56:22;7.00;91.70
52024;DHT22;38038;45.922;13.604;2023-02-12T17:58:50;6.80;91.90
52024;DHT22;38038;45.922;13.604;2023-02-12T18:01:18;6.80;92.20
52024;DHT22;38038;45.922;13.604;2023-02-12T18:03:44;6.70;92.20
52024;DHT22;38038;45.922;13.604;2023-02-12T18:06:11;6.50;92.40
52024;DHT22;38038;45.922;13.604;2023-02-12T18:08:39;6.40;93.50
52024;DHT22;38038;45.922;13.604;2023-02-12T18:11:06;6.30;93.70
52024;DHT22;38038;45.922;13.604;2023-02-12T18:13:34;6.40;93.90
52024;DHT22;38038;45.922;13.604;2023-02-12T18:16:00;6.40;94.10